AirNav   ATP
 
 976 users online  

7N0 New Orleans Downtown Heliport
New Orleans, Louisiana, USA

GOING TO NEW ORLEANS?


FAA INFORMATION EFFECTIVE 01 FEBRUARY 2018

Location

FAA Identifier: 7N0
Lat/Long: 29-57-09.6600N / 090-04-57.8400W
29-57.161000N / 090-04.964000W
29.9526833 / -90.0827333
(estimated)
Elevation: 30 ft. / 9 m (estimated)
Variation: 02E (1995)
Time zone: UTC -6 (UTC -5 during Daylight Saving Time)
Zip code: 70112

Heliport Operations

Heliport use: Open to the public
Activation date: 01/1997
Control tower: no
ARTCC: HOUSTON CENTER
FSS: DE RIDDER FLIGHT SERVICE STATION
NOTAMs facility: DRI (NOTAM-D service available)
Attendance: 
Wind indicator: lighted
Segmented circle: no
Lights: SS-SR
Beacon: white-green-yellow (heliport)
Operates sunset to sunrise.
Landing fee: yes

Heliport Communications

CTAF/UNICOM: 123.05
WX AWOS-3PT: 133.10 (504-525-1711)
WX ASOS at NEW (6 nm NE): PHONE 504-245-4366
WX ASOS at MSY (9 nm W): PHONE (504)471-4486

Nearby radio navigation aids

VOR radial/distance  VOR name  Freq  Var
HRVr324/7.4HARVEY VORTAC114.1002E
RQRr105/27.5RESERVE VOR/DME110.8002E
HMUr153/(38.2)HAMMOND VOR109.6000E

Heliport Services

Runway Information

Helipad H1

Dimensions: 40 x 40 ft. / 12 x 12 m
Surface: concrete, in good condition
Runway edge lights: APPROACH LIGHTING NON-STANDARD
Runway edge markings: HELIPAD MKD WITH REFLECTIVE PAINT.
Operational restrictions: ROOFTOP OF PARKING GARAGE.
Traffic pattern: leftleft
Markings: NSTD, in good condition

Heliport Ownership and Management from official FAA records

Ownership: Publicly-owned
Owner: CITY OF NEW ORLEANS
PO BOX 20007
NEW ORLEANS, LA 70141
Phone 504-303-7700
NEW ORLEANS AVIATION BOARD.
Manager: IFTIKHAR AHMAD
NEW ORLEANS DOWNTOWN HELIPORT, C/O LOUISIANA SUPERDOME
NEW ORLEANS, LA 70112
Phone (504) 303-7522
PHONE LOCATED AT HELIPORT.

Heliport Operational Statistics

Aircraft operations: avg 56/week *
69% transient general aviation
31% military
* for 12-month period ending 19 July 2016

Additional Remarks

A52-H1 200 FT LGTD TWR 1000 FT SSW, 500 FT BLDGS 700 FT ENE, 350 FT BLDG 375 FT SE & 1100 FT S OF HELIPAD.
RY H1 INGRESS 210 DEGS FOR WEST APCH; 070 DEGS FOR EAST APCH.
FOR CD CTC MSY APCH AT 504-471-4350.
HELIPORT UNATTENDED PERMANENTLY

Instrument Procedures

There are no published instrument procedures at 7N0.

Some nearby airports with instrument procedures:

KNEW - Lakefront Airport (6 nm NE)
KNBG - New Orleans Naval Air Station Joint Reserve Base//Alvin Callender Field (8 nm S)
KMSY - Louis Armstrong New Orleans International Airport (9 nm W)
KAPS - Port of South Louisiana Executive Regional Airport (27 nm W)
KASD - Slidell Airport (27 nm NE)
 
Loc | Ops | Rwys | IFR | FBO | Links
Com | Nav | Svcs | Stats | Notes

AirNav Hotels Sweepstakes
 
Area around 7N0 (New Orleans Downtown Heliport)
 
Road maps at: MapQuest Bing Google
 
Aerial photo
WARNING: Photo may not be current or correct
Aerial photo of 7N0 (New Orleans Downtown Heliport)
Photo by Malen Eyerly
Photo taken 31-Dec-2008

Do you have a better or more recent aerial photo of New Orleans Downtown Heliport that you would like to share? If so, please send us your photo.

 
Sectional chart

 
Airport distance calculator
Flying to New Orleans Downtown Heliport? Find the distance to fly.

From to 7N0

Sunrise and sunset
Times for 18-Feb-2018
 Local
(UTC-6)
 Zulu
(UTC)
Morning civil twilight06:1412:14
Sunrise06:3812:38
Sunset17:5023:50
Evening civil twilight18:1500:15

Current date and time
Zulu (UTC)  18-Feb-2018 23:06:42
Local (UTC-6)  18-Feb-2018 17:06:42
 
METAR
K7N0 182256Z AUTO 16008KT 10SM FEW037 26/17 A3014 RMK AO2 SLP207 T02560172
KNEW 
6nm NE 
182253Z 15010KT 10SM CLR 25/16 A3013 RMK AO2 SLP197 T02500161 $
KNBG 
9nm SE 
182255Z 17007KT 10SM FEW025 BKN250 24/18 A3013 RMK AO2 SLP203 T02440178 $
KMSY 
9nm W 
182253Z 17009KT 10SM FEW005 FEW030 BKN250 25/19 A3013 RMK AO2 SLP205 FU FEW005 T02500189
TAF
KNEW 
6nm NE 
181732Z 1818/1918 02005KT 4SM HZ FEW016 FM181915 14006KT P6SM SCT090 FM190400 14007KT 4SM BR BKN015 FM191000 14006KT 2SM BR BKN015 FM191500 14007KT P6SM BKN030
KNBG 
9nm SE 
1815/1915 VRB06KT 1600 BR OVC003 QNH3016INS TEMPO 1815/1818 12006KT 4800 BR BKN006 BKN015 BECMG 1818/1820 14006KT 6000 BR BKN015 BKN030 QNH3018INS FM182100 15010KT 9999 NSW SCT020 BKN035 QNH3022INS TEMPO 1905/1909 4800 BR BKN010 TEMPO 1909/1912 0400 OVC002 BECMG 1912/1913 13010KT 9999 SCT020 BKN050 QNH3015INS T25/1819Z T20/1909Z COR 1509 FN20038
KMSY 
9nm W 
181732Z 1818/1924 19006KT P6SM BKN014 FM182000 16007KT P6SM SCT045 SCT130 FM190200 15005KT P6SM SCT025 BKN200 FM190500 15003KT 5SM BR SCT020 FM190700 14006KT 3SM BR SCT020 FM190900 14006KT 1 1/2SM BR BKN010 FM191500 14008KT P6SM BKN035 FM191800 16012KT P6SM BKN040
NOTAMs
Click for the latest NOTAMs
NOTAMs are issued by the DoD/FAA and will open in a separate window not controlled by AirNav.

 

 
 

Would you like to see your business listed on this page?

 If your business provides an interesting product or service to pilots, flight crews, aircraft, or users of the New Orleans Downtown Heliport, you should consider listing it here.  To start the listing process, click on the button below
 
Add a business
 

Other Pages about New Orleans Downtown Heliport

Update a link
 
Copyright © AirNav, LLC. All rights reserved. Privacy Policy  Contact